createdAt,value
2018-07-14T00:03:23.247Z,75.79
2018-07-14T00:09:28.905Z,75.81
2018-07-14T00:15:34.605Z,76.84
2018-07-14T00:21:40.261Z,77.15
2018-07-14T00:27:46.234Z,77.08
2018-07-14T00:33:52.376Z,76.82
2018-07-14T00:39:58.409Z,78.53
2018-07-14T00:46:04.236Z,78.97
2018-07-14T00:52:10.005Z,79.69
2018-07-14T00:58:15.705Z,79.42
2018-07-14T01:04:21.356Z,79.12
2018-07-14T01:10:27.030Z,80.09
2018-07-14T01:16:32.804Z,79.58
2018-07-14T01:22:38.571Z,79.73
2018-07-14T01:28:44.315Z,80.64
2018-07-14T01:34:49.987Z,82.49
2018-07-14T01:40:55.917Z,81.45
2018-07-14T01:47:01.658Z,82.52
2018-07-14T01:53:07.341Z,82.94
2018-07-14T01:59:13.185Z,82.35
2018-07-14T02:05:19.155Z,83.00
2018-07-14T02:11:25.061Z,83.44
2018-07-14T02:17:30.776Z,83.83
2018-07-14T02:23:36.468Z,84.11
2018-07-14T02:29:42.238Z,83.70
2018-07-14T02:35:48.024Z,84.08
2018-07-14T02:41:55.349Z,84.58
2018-07-14T02:48:01.067Z,85.54
2018-07-14T02:54:06.785Z,86.05
2018-07-14T03:00:12.419Z,86.18
2018-07-14T03:06:18.069Z,86.08
2018-07-14T03:12:23.689Z,85.92
2018-07-14T03:18:29.332Z,85.09
2018-07-14T03:24:35.054Z,85.18
2018-07-14T03:30:41.208Z,85.14
2018-07-14T03:36:47.017Z,85.41
2018-07-14T03:42:54.472Z,84.41
2018-07-14T03:49:00.170Z,84.64
2018-07-14T03:55:06.501Z,83.63
2018-07-14T04:01:12.152Z,84.03
2018-07-14T04:07:17.876Z,82.78
2018-07-14T04:13:23.760Z,83.62
2018-07-14T04:19:29.397Z,82.38
2018-07-14T04:25:41.401Z,82.79
2018-07-14T04:31:47.225Z,81.85
2018-07-14T04:37:53.510Z,82.75
2018-07-14T04:43:59.370Z,81.95
2018-07-14T04:50:05.333Z,81.46
2018-07-14T04:56:10.957Z,81.35
2018-07-14T05:02:16.616Z,80.54
2018-07-14T05:08:22.353Z,80.58
2018-07-14T05:14:28.466Z,80.62
2018-07-14T05:20:34.149Z,80.78
2018-07-14T05:26:39.775Z,80.59
2018-07-14T05:32:45.684Z,80.53
2018-07-14T05:38:51.701Z,78.77
2018-07-14T05:44:57.715Z,78.31
2018-07-14T05:51:03.531Z,78.68
2018-07-14T05:57:09.406Z,78.41
2018-07-14T06:03:15.192Z,76.96
2018-07-14T06:09:21.683Z,76.38
2018-07-14T06:15:27.349Z,74.90
2018-07-14T06:21:33.106Z,74.57
2018-07-14T06:27:38.881Z,75.58
2018-07-14T06:33:44.671Z,75.12
2018-07-14T06:39:51.308Z,73.37
2018-07-14T06:45:57.187Z,73.09
2018-07-14T06:52:02.838Z,70.55
2018-07-14T06:58:08.585Z,70.33
2018-07-14T07:04:14.448Z,68.21
2018-07-14T07:10:20.346Z,70.03
2018-07-14T07:16:26.349Z,70.24
2018-07-14T07:22:32.395Z,69.40
2018-07-14T07:28:38.044Z,70.93
2018-07-14T07:34:44.043Z,70.52
2018-07-14T07:40:49.808Z,67.31
2018-07-14T07:46:55.728Z,66.15
2018-07-14T07:53:01.614Z,64.77
2018-07-14T07:59:07.423Z,63.25
2018-07-14T08:05:13.281Z,62.41
2018-07-14T08:11:19.657Z,61.13
2018-07-14T08:17:26.101Z,62.41
2018-07-14T08:23:31.997Z,60.66
2018-07-14T08:29:37.666Z,60.32
2018-07-14T08:35:43.355Z,59.26
2018-07-14T08:41:49.279Z,60.44
2018-07-14T08:47:56.020Z,58.37
2018-07-14T08:54:01.678Z,57.44
2018-07-14T09:00:07.544Z,56.90
2018-07-14T09:06:13.600Z,55.62
2018-07-14T09:12:20.223Z,54.43
2018-07-14T09:18:26.389Z,53.37
2018-07-14T09:24:32.065Z,51.52
2018-07-14T09:30:37.755Z,50.22
2018-07-14T09:36:43.470Z,51.13
2018-07-14T09:42:49.144Z,47.45
2018-07-14T09:48:56.382Z,47.97
2018-07-14T09:55:02.220Z,47.88
2018-07-14T10:01:10.174Z,45.21
2018-07-14T10:07:15.798Z,45.47
2018-07-14T10:13:21.470Z,43.69
2018-07-14T10:19:27.173Z,43.06
2018-07-14T10:25:32.950Z,43.21
2018-07-14T10:31:38.781Z,43.39
2018-07-14T10:37:44.590Z,42.92
2018-07-14T10:43:50.671Z,40.90
2018-07-14T10:49:56.436Z,39.90
2018-07-14T10:56:02.438Z,39.10
2018-07-14T11:02:08.280Z,38.00
2018-07-14T11:08:13.978Z,36.70
2018-07-14T11:14:19.731Z,36.28
2018-07-14T11:20:25.942Z,35.34
2018-07-14T11:26:31.838Z,36.47
2018-07-14T11:32:37.511Z,36.07
2018-07-14T11:38:43.209Z,35.34
2018-07-14T11:44:48.855Z,34.46
2018-07-14T11:50:54.914Z,31.55
2018-07-14T11:57:00.612Z,33.69
2018-07-14T12:03:06.342Z,35.92
2018-07-14T12:09:11.988Z,35.22
2018-07-14T12:15:17.672Z,34.00
2018-07-14T12:21:24.863Z,35.53
2018-07-14T12:27:30.618Z,36.58
2018-07-14T12:33:36.352Z,34.28
2018-07-14T12:39:42.053Z,34.33
2018-07-14T12:45:47.799Z,31.17
2018-07-14T12:51:53.686Z,30.16
2018-07-14T12:57:59.427Z,30.00
2018-07-14T13:04:05.340Z,30.28
2018-07-14T13:10:11.121Z,34.07
2018-07-14T13:16:16.907Z,30.93
2018-07-14T13:22:23.737Z,31.05
2018-07-14T13:28:29.402Z,31.46
2018-07-14T13:34:35.264Z,31.17
2018-07-14T13:40:41.068Z,30.97
2018-07-14T13:46:47.015Z,30.93
2018-07-14T13:52:54.630Z,29.37
2018-07-14T13:59:00.571Z,29.69
2018-07-14T14:05:06.535Z,27.40
2018-07-14T14:11:12.280Z,30.00
2018-07-14T14:17:18.035Z,33.58
2018-07-14T14:23:24.678Z,32.41
2018-07-14T14:29:30.700Z,31.13
2018-07-14T14:35:36.617Z,32.03
2018-07-14T14:41:42.328Z,30.64
2018-07-14T14:47:48.150Z,30.40
2018-07-14T14:53:54.434Z,31.80
2018-07-14T15:00:00.144Z,31.35
2018-07-14T15:06:06.031Z,31.69
2018-07-14T15:12:11.861Z,31.28
2018-07-14T15:18:17.667Z,30.17
2018-07-14T15:24:25.547Z,29.47
2018-07-14T15:30:31.558Z,31.17
2018-07-14T15:36:37.312Z,30.78
2018-07-14T15:42:43.544Z,30.48
2018-07-14T15:48:49.195Z,32.61
2018-07-14T15:54:55.047Z,32.81
2018-07-14T16:01:00.725Z,33.18
2018-07-14T16:07:06.575Z,32.60
2018-07-14T16:13:12.248Z,32.73
2018-07-14T16:19:17.931Z,33.41
2018-07-14T16:25:24.268Z,33.68
2018-07-14T16:31:30.112Z,32.76
2018-07-14T16:37:36.196Z,31.31
2018-07-14T16:43:42.232Z,30.32
2018-07-14T16:49:47.847Z,27.23
2018-07-14T16:55:54.551Z,27.58
2018-07-14T17:02:00.413Z,28.75
2018-07-14T17:08:06.209Z,34.24
2018-07-14T17:14:12.477Z,37.98
2018-07-14T17:20:17.983Z,36.72
2018-07-14T17:26:25.687Z,36.77
2018-07-14T17:32:31.365Z,39.56
2018-07-14T17:38:37.537Z,36.70
2018-07-14T17:44:43.414Z,35.08
2018-07-14T17:50:49.051Z,34.19
2018-07-14T17:56:55.422Z,34.21
2018-07-14T18:03:01.406Z,33.71
2018-07-14T18:09:09.639Z,35.81
2018-07-14T18:15:15.454Z,36.44
2018-07-14T18:21:22.142Z,36.67
2018-07-14T18:27:27.979Z,36.59
2018-07-14T18:33:33.872Z,37.40
2018-07-14T18:39:39.721Z,37.95
2018-07-14T18:45:45.339Z,39.13
2018-07-14T18:51:52.815Z,41.42
2018-07-14T18:57:58.568Z,44.37
2018-07-14T19:04:04.335Z,46.59
2018-07-14T19:10:10.256Z,49.49
2018-07-14T19:16:15.993Z,50.52
2018-07-14T19:22:22.164Z,52.37
2018-07-14T19:28:28.006Z,53.93
2018-07-14T19:34:33.632Z,54.81
2018-07-14T19:40:39.370Z,54.88
2018-07-14T19:46:45.355Z,56.33
2018-07-14T19:52:51.509Z,56.11
2018-07-14T19:58:57.137Z,56.20
2018-07-14T20:05:02.788Z,56.54
2018-07-14T20:11:08.813Z,56.16
2018-07-14T20:17:15.378Z,56.44
2018-07-14T20:23:22.812Z,56.65
2018-07-14T20:29:28.524Z,57.18
2018-07-14T20:35:34.218Z,58.93
2018-07-14T20:41:39.934Z,61.10
2018-07-14T20:47:45.733Z,59.55
2018-07-14T20:53:52.504Z,60.26
2018-07-14T20:59:58.181Z,61.35
2018-07-14T21:06:03.922Z,63.33
2018-07-14T21:12:09.799Z,63.03
2018-07-14T21:18:15.606Z,63.62
2018-07-14T21:24:21.782Z,62.87
2018-07-14T21:30:27.696Z,61.32
2018-07-14T21:36:33.341Z,61.31
2018-07-14T21:42:39.058Z,62.32
2018-07-14T21:48:44.780Z,63.10
2018-07-14T21:54:50.792Z,63.21
2018-07-14T22:01:05.945Z,64.72
2018-07-14T22:07:11.675Z,65.01
2018-07-14T22:13:17.294Z,66.88
2018-07-14T22:19:23.804Z,67.48
2018-07-14T22:25:29.557Z,68.21
2018-07-14T22:31:35.232Z,68.71
2018-07-14T22:37:41.049Z,68.65
2018-07-14T22:43:46.730Z,69.75
2018-07-14T22:49:53.041Z,70.33
2018-07-14T22:55:58.874Z,70.95
2018-07-14T23:02:04.578Z,71.69
2018-07-14T23:08:10.294Z,71.64
2018-07-14T23:14:16.071Z,73.16
2018-07-14T23:20:21.877Z,72.99
2018-07-14T23:26:27.622Z,73.51
2018-07-14T23:32:33.451Z,74.10
2018-07-14T23:38:39.320Z,74.33
2018-07-14T23:44:44.953Z,74.85
2018-07-14T23:50:50.777Z,74.72
2018-07-14T23:56:56.793Z,75.66
